createdAt,value
2018-04-07T00:01:47.806Z,46.83
2018-04-07T00:04:16.191Z,46.96
2018-04-07T00:06:44.544Z,46.90
2018-04-07T00:09:12.891Z,47.16
2018-04-07T00:11:41.271Z,46.87
2018-04-07T00:14:09.568Z,46.55
2018-04-07T00:16:38.654Z,46.61
2018-04-07T00:19:07.475Z,46.46
2018-04-07T00:21:35.901Z,46.24
2018-04-07T00:24:04.223Z,46.72
2018-04-07T00:26:32.675Z,46.85
2018-04-07T00:29:01.025Z,46.85
2018-04-07T00:31:29.376Z,46.77
2018-04-07T00:33:57.752Z,46.50
2018-04-07T00:36:26.131Z,47.04
2018-04-07T00:38:54.471Z,46.77
2018-04-07T00:41:23.131Z,46.71
2018-04-07T00:43:51.431Z,46.45
2018-04-07T00:46:19.792Z,46.77
2018-04-07T00:48:48.178Z,46.74
2018-04-07T00:51:16.543Z,46.66
2018-04-07T00:53:44.978Z,46.72
2018-04-07T00:56:13.456Z,46.68
2018-04-07T00:58:41.889Z,46.75
2018-04-07T01:01:10.212Z,46.72
2018-04-07T01:03:38.967Z,47.21
2018-04-07T01:06:07.316Z,47.02
2018-04-07T01:08:35.736Z,46.94
2018-04-07T01:11:04.181Z,47.07
2018-04-07T01:13:32.589Z,46.99
2018-04-07T01:16:00.912Z,47.11
2018-04-07T01:18:29.362Z,47.21
2018-04-07T01:20:57.746Z,47.55
2018-04-07T01:23:26.228Z,47.26
2018-04-07T01:25:55.524Z,47.17
2018-04-07T01:28:23.905Z,47.24
2018-04-07T01:30:52.246Z,47.12
2018-04-07T01:33:21.096Z,47.17
2018-04-07T01:35:50.191Z,47.40
2018-04-07T01:38:18.495Z,47.54
2018-04-07T01:40:46.845Z,47.21
2018-04-07T01:43:15.971Z,46.92
2018-04-07T01:45:44.299Z,46.62
2018-04-07T01:48:12.723Z,47.05
2018-04-07T01:50:41.058Z,46.90
2018-04-07T01:53:09.400Z,47.45
2018-04-07T01:55:37.736Z,47.56
2018-04-07T01:58:06.814Z,47.52
2018-04-07T02:00:35.129Z,47.65
2018-04-07T02:03:03.525Z,47.54
2018-04-07T02:05:31.868Z,47.54
2018-04-07T02:08:00.959Z,47.52
2018-04-07T02:10:30.194Z,47.62
2018-04-07T02:12:58.528Z,47.56
2018-04-07T02:15:27.655Z,47.58
2018-04-07T02:17:56.029Z,47.46
2018-04-07T02:20:24.353Z,48.17
2018-04-07T02:22:52.692Z,47.88
2018-04-07T02:25:21.067Z,48.38
2018-04-07T02:27:49.453Z,48.26
2018-04-07T02:30:17.793Z,47.79
2018-04-07T02:32:46.720Z,47.42
2018-04-07T02:35:15.672Z,47.79
2018-04-07T02:37:44.020Z,47.73
2018-04-07T02:40:12.368Z,47.58
2018-04-07T02:42:40.747Z,47.54
2018-04-07T02:45:09.089Z,47.72
2018-04-07T02:47:37.422Z,47.97
2018-04-07T02:50:05.744Z,47.85
2018-04-07T02:52:34.162Z,47.55
2018-04-07T02:55:02.946Z,47.93
2018-04-07T02:57:31.246Z,48.21
2018-04-07T02:59:59.555Z,48.04
2018-04-07T03:02:27.916Z,48.34
2018-04-07T03:04:56.256Z,48.15
2018-04-07T03:07:24.591Z,48.61
2018-04-07T03:09:52.929Z,48.19
2018-04-07T03:12:21.244Z,48.08
2018-04-07T03:14:49.555Z,47.57
2018-04-07T03:17:18.751Z,47.19
2018-04-07T03:19:47.864Z,47.38
2018-04-07T03:22:16.193Z,47.47
2018-04-07T03:24:44.527Z,47.75
2018-04-07T03:27:12.855Z,47.53
2018-04-07T03:29:41.212Z,47.43
2018-04-07T03:32:09.565Z,47.28
2018-04-07T03:34:37.919Z,47.14
2018-04-07T03:37:06.391Z,47.56
2018-04-07T03:39:34.938Z,47.65
2018-04-07T03:42:03.264Z,47.52
2018-04-07T03:44:32.342Z,47.62
2018-04-07T03:47:00.707Z,47.49
2018-04-07T03:49:29.041Z,47.44
2018-04-07T03:51:57.385Z,47.20
2018-04-07T03:54:26.497Z,47.10
2018-04-07T03:56:55.566Z,46.85
2018-04-07T03:59:23.887Z,47.21
2018-04-07T04:01:52.511Z,47.53
2018-04-07T04:04:20.875Z,47.40
2018-04-07T04:06:49.182Z,47.24
2018-04-07T04:09:17.538Z,47.26
2018-04-07T04:11:45.870Z,47.11
2018-04-07T04:14:14.959Z,47.42
2018-04-07T04:16:44.100Z,47.88
2018-04-07T04:19:12.438Z,47.99
2018-04-07T04:21:40.790Z,47.72
2018-04-07T04:24:09.222Z,47.82
2018-04-07T04:26:37.535Z,48.24
2018-04-07T04:29:05.852Z,48.50
2018-04-07T04:31:35.040Z,48.59
2018-04-07T04:34:03.367Z,48.95
2018-04-07T04:36:31.717Z,48.72
2018-04-07T04:39:00.150Z,48.41
2018-04-07T04:41:28.487Z,48.69
2018-04-07T04:43:56.840Z,48.31
2018-04-07T04:46:25.294Z,48.29
2018-04-07T04:48:53.637Z,48.51
2018-04-07T04:51:21.957Z,48.62
2018-04-07T04:53:50.316Z,48.72
2018-04-07T04:56:18.661Z,48.76
2018-04-07T04:58:46.970Z,48.74
2018-04-07T05:01:15.311Z,48.75
2018-04-07T05:03:43.680Z,48.67
2018-04-07T05:06:12.001Z,48.57
2018-04-07T05:08:40.514Z,48.25
2018-04-07T05:11:08.834Z,47.81
2018-04-07T05:13:37.912Z,47.69
2018-04-07T05:16:07.036Z,48.33
2018-04-07T05:18:35.379Z,48.12
2018-04-07T05:21:03.752Z,48.13
2018-04-07T05:23:32.902Z,48.37
2018-04-07T05:26:01.249Z,47.91
2018-04-07T05:28:29.592Z,47.72
2018-04-07T05:30:58.152Z,47.13
2018-04-07T05:33:26.473Z,46.78
2018-04-07T05:35:54.846Z,46.89
2018-04-07T05:38:24.033Z,46.69
2018-04-07T05:40:52.378Z,46.53
2018-04-07T05:43:20.713Z,46.68
2018-04-07T05:45:49.896Z,47.01
2018-04-07T05:48:18.236Z,47.04
2018-04-07T05:50:46.571Z,47.09
2018-04-07T05:53:15.814Z,47.41
2018-04-07T05:55:44.182Z,47.86
2018-04-07T05:58:12.524Z,47.67
2018-04-07T06:00:41.667Z,47.02
2018-04-07T06:03:10.079Z,46.89
2018-04-07T06:05:38.421Z,46.79
2018-04-07T06:08:06.816Z,46.14
2018-04-07T06:10:35.253Z,45.88
2018-04-07T06:13:04.424Z,45.92
2018-04-07T06:15:33.681Z,45.45
2018-04-07T06:18:02.004Z,44.95
2018-04-07T06:20:30.343Z,44.76
2018-04-07T06:22:58.700Z,44.99
2018-04-07T06:25:27.034Z,44.49
2018-04-07T06:27:55.380Z,44.88
2018-04-07T06:30:23.747Z,44.31
2018-04-07T06:32:52.081Z,44.46
2018-04-07T06:35:21.201Z,43.43
2018-04-07T06:37:50.906Z,43.27
2018-04-07T06:40:19.978Z,42.93
2018-04-07T06:42:48.331Z,42.60
2018-04-07T06:45:16.774Z,42.10
2018-04-07T06:47:45.135Z,41.75
2018-04-07T06:50:14.233Z,41.92
2018-04-07T06:52:43.372Z,41.27
2018-04-07T06:55:11.723Z,40.50
2018-04-07T06:57:40.800Z,40.23
2018-04-07T07:00:09.328Z,40.45
2018-04-07T07:02:37.672Z,39.71
2018-04-07T07:05:06.776Z,39.98
2018-04-07T07:07:35.177Z,39.02
2018-04-07T07:10:03.521Z,39.15
2018-04-07T07:12:32.608Z,39.02
2018-04-07T07:15:01.747Z,38.49
2018-04-07T07:17:30.093Z,38.44
2018-04-07T07:19:59.177Z,37.89
2018-04-07T07:22:28.004Z,36.67
2018-04-07T07:24:56.310Z,35.80
2018-04-07T07:27:24.712Z,35.31
2018-04-07T07:29:53.133Z,34.38
2018-04-07T07:32:21.454Z,33.92
2018-04-07T07:34:49.797Z,33.26
2018-04-07T07:37:18.180Z,32.89
2018-04-07T07:39:46.576Z,32.97
2018-04-07T07:42:14.930Z,32.87
2018-04-07T07:44:43.412Z,32.54
2018-04-07T07:47:11.758Z,30.60
2018-04-07T07:49:40.147Z,30.45
2018-04-07T07:52:08.572Z,31.10
2018-04-07T07:54:36.929Z,29.50
2018-04-07T07:57:05.276Z,28.69
2018-04-07T07:59:33.655Z,29.23
2018-04-07T08:02:01.996Z,29.64
2018-04-07T08:04:30.343Z,29.57
2018-04-07T08:06:58.967Z,28.70
2018-04-07T08:09:27.292Z,27.51
2018-04-07T08:11:55.638Z,26.83
2018-04-07T08:14:24.012Z,28.45
2018-04-07T08:16:52.338Z,29.09
2018-04-07T08:19:21.416Z,28.46
2018-04-07T08:21:50.553Z,27.63
2018-04-07T08:24:18.891Z,28.21
2018-04-07T08:26:47.994Z,27.51
2018-04-07T08:29:16.436Z,25.17
2018-04-07T08:31:44.783Z,25.00
2018-04-07T08:34:13.838Z,24.86
2018-04-07T08:36:42.232Z,24.43
2018-04-07T08:39:10.596Z,23.96
2018-04-07T08:41:38.980Z,23.09
2018-04-07T08:44:07.350Z,21.84
2018-04-07T08:46:35.809Z,21.51
2018-04-07T08:49:04.609Z,20.69
2018-04-07T08:51:35.908Z,22.19
2018-04-07T08:54:04.421Z,22.34
2018-04-07T08:56:32.910Z,22.40
2018-04-07T08:59:01.320Z,23.79
2018-04-07T09:01:30.503Z,24.35
2018-04-07T09:03:58.877Z,24.66
2018-04-07T09:06:27.354Z,24.71
2018-04-07T09:08:55.728Z,24.23
2018-04-07T09:11:24.150Z,22.75
2018-04-07T09:13:52.848Z,23.84
2018-04-07T09:16:21.224Z,23.38
2018-04-07T09:18:50.356Z,22.37
2018-04-07T09:21:18.753Z,22.89
2018-04-07T09:23:47.125Z,21.84
2018-04-07T09:26:15.455Z,22.03
2018-04-07T09:28:44.617Z,24.66
2018-04-07T09:31:18.538Z,25.42
2018-04-07T09:33:47.315Z,25.12
2018-04-07T09:36:15.744Z,24.01
2018-04-07T09:38:44.156Z,22.54
2018-04-07T09:41:12.649Z,21.63
2018-04-07T09:43:41.038Z,22.79
2018-04-07T09:46:09.464Z,21.66
2018-04-07T09:48:37.875Z,21.81
2018-04-07T09:51:06.368Z,21.07
2018-04-07T09:53:35.545Z,21.80
2018-04-07T09:56:04.276Z,22.06
2018-04-07T09:58:32.640Z,21.91
2018-04-07T10:01:01.042Z,22.01
2018-04-07T10:03:30.271Z,22.66
2018-04-07T10:05:58.679Z,23.87
2018-04-07T10:08:27.054Z,23.97
2018-04-07T10:10:55.607Z,22.46
2018-04-07T10:13:24.708Z,23.35
2018-04-07T10:15:53.049Z,23.64
2018-04-07T10:20:56.958Z,21.75
2018-04-07T10:23:25.351Z,21.44
2018-04-07T10:25:53.725Z,20.40
2018-04-07T10:28:22.042Z,19.51
2018-04-07T10:30:50.389Z,19.03
2018-04-07T10:33:18.727Z,18.35
2018-04-07T10:35:47.177Z,17.83
2018-04-07T10:38:16.374Z,16.05
2018-04-07T10:40:44.788Z,19.28
2018-04-07T10:43:13.138Z,19.23
2018-04-07T10:45:42.466Z,20.39
2018-04-07T10:48:10.833Z,20.77
2018-04-07T10:50:39.185Z,18.18
2018-04-07T10:53:07.630Z,17.55
2018-04-07T10:55:35.971Z,17.69
2018-04-07T10:58:04.297Z,17.72
2018-04-07T11:00:32.815Z,19.02
2018-04-07T11:03:01.912Z,18.04
2018-04-07T11:05:31.011Z,18.45
2018-04-07T11:08:00.167Z,18.55
2018-04-07T11:10:28.601Z,18.57
2018-04-07T11:12:57.705Z,18.23
2018-04-07T11:15:26.054Z,19.12
2018-04-07T11:17:54.382Z,18.98
2018-04-07T11:20:22.703Z,18.41
2018-04-07T11:22:51.122Z,18.20
2018-04-07T11:25:19.470Z,18.98
2018-04-07T11:27:48.562Z,19.37
2018-04-07T11:30:17.661Z,18.75
2018-04-07T11:32:46.834Z,17.33
2018-04-07T11:35:15.170Z,18.22
2018-04-07T11:37:44.424Z,17.81
2018-04-07T11:40:12.845Z,18.00
2018-04-07T11:42:41.295Z,17.21
2018-04-07T11:45:10.197Z,18.47
2018-04-07T11:47:39.316Z,17.09
2018-04-07T11:50:07.673Z,17.22
2018-04-07T11:52:36.054Z,17.39
2018-04-07T11:55:04.373Z,18.39
2018-04-07T11:57:32.869Z,18.08
2018-04-07T12:00:01.221Z,18.55
2018-04-07T12:02:29.651Z,18.71
2018-04-07T12:04:58.780Z,17.80
2018-04-07T12:07:27.292Z,17.17
2018-04-07T12:09:55.642Z,18.08
2018-04-07T12:12:24.013Z,19.31
2018-04-07T12:14:52.542Z,19.40
2018-04-07T12:17:20.907Z,19.06
2018-04-07T12:19:49.264Z,17.84
2018-04-07T12:22:17.733Z,18.16
2018-04-07T12:24:46.099Z,18.83
2018-04-07T12:27:15.212Z,18.47
2018-04-07T12:29:44.520Z,19.67
2018-04-07T12:32:12.929Z,18.62
2018-04-07T12:34:41.281Z,18.35
2018-04-07T12:37:09.805Z,17.65
2018-04-07T12:39:38.223Z,16.59
2018-04-07T12:42:12.865Z,15.62
2018-04-07T12:44:41.286Z,17.58
2018-04-07T12:47:09.794Z,18.97
2018-04-07T12:49:38.502Z,18.52
2018-04-07T12:52:06.875Z,18.19
2018-04-07T12:54:35.250Z,19.04
2018-04-07T12:57:03.764Z,19.97
2018-04-07T12:59:32.169Z,20.40
2018-04-07T13:02:00.574Z,18.86
2018-04-07T13:04:29.259Z,18.34
2018-04-07T13:07:00.431Z,18.72
2018-04-07T13:09:28.793Z,19.04
2018-04-07T13:11:57.246Z,18.52
2018-04-07T13:14:25.676Z,18.55
2018-04-07T13:16:54.128Z,19.48
2018-04-07T13:19:22.730Z,19.39
2018-04-07T13:21:51.112Z,19.40
2018-04-07T13:24:20.224Z,19.25
2018-04-07T13:26:48.559Z,19.13
2018-04-07T13:29:16.880Z,18.75
2018-04-07T13:31:46.002Z,19.10
2018-04-07T13:34:14.720Z,20.51
2018-04-07T13:36:43.104Z,20.70
2018-04-07T13:39:11.563Z,21.29
2018-04-07T13:41:39.925Z,21.48
2018-04-07T13:44:08.283Z,22.15
2018-04-07T13:46:36.672Z,21.25
2018-04-07T13:49:05.027Z,20.45
2018-04-07T13:51:34.150Z,20.75
2018-04-07T13:54:02.539Z,20.71
2018-04-07T13:56:31.011Z,21.39
2018-04-07T13:58:59.393Z,22.20
2018-04-07T14:01:27.788Z,22.23
2018-04-07T14:03:56.173Z,22.88
2018-04-07T14:06:24.498Z,22.00
2018-04-07T14:08:52.815Z,22.19
2018-04-07T14:11:21.225Z,22.46
2018-04-07T14:13:49.561Z,23.79
2018-04-07T14:16:17.926Z,23.86
2018-04-07T14:18:46.409Z,24.33
2018-04-07T14:21:14.757Z,24.38
2018-04-07T14:23:43.256Z,24.63
2018-04-07T14:26:11.669Z,24.86
2018-04-07T14:28:40.029Z,25.35
2018-04-07T14:31:09.130Z,25.28
2018-04-07T14:33:37.505Z,25.81
2018-04-07T14:36:05.881Z,26.01
2018-04-07T14:38:34.973Z,25.96
2018-04-07T14:41:04.439Z,25.75
2018-04-07T14:43:32.794Z,26.73
2018-04-07T14:46:01.145Z,26.94
2018-04-07T14:48:29.526Z,26.96
2018-04-07T14:50:58.615Z,26.87
2018-04-07T14:53:27.715Z,26.94
2018-04-07T14:55:56.187Z,26.72
2018-04-07T14:58:25.323Z,26.21
2018-04-07T15:00:53.692Z,26.75
2018-04-07T15:03:22.180Z,26.71
2018-04-07T15:05:50.545Z,26.86
2018-04-07T15:08:18.900Z,27.30
2018-04-07T15:10:48.069Z,26.87
2018-04-07T15:13:16.442Z,27.64
2018-04-07T15:15:44.820Z,27.44
2018-04-07T15:18:13.204Z,27.56
2018-04-07T15:20:41.578Z,27.71
2018-04-07T15:23:09.910Z,28.03
2018-04-07T15:25:39.135Z,27.91
2018-04-07T15:28:07.489Z,28.38
2018-04-07T15:30:36.586Z,28.56
2018-04-07T15:33:05.850Z,28.92
2018-04-07T15:35:34.254Z,28.77
2018-04-07T15:38:02.649Z,28.76
2018-04-07T15:40:32.594Z,28.65
2018-04-07T15:43:01.237Z,27.98
2018-04-07T15:45:30.325Z,28.15
2018-04-07T15:47:59.119Z,28.54
2018-04-07T15:50:28.216Z,28.68
2018-04-07T15:52:57.316Z,28.64
2018-04-07T15:55:26.524Z,29.21
2018-04-07T15:57:54.963Z,29.23
2018-04-07T16:00:23.351Z,29.55
2018-04-07T16:02:51.735Z,29.92
2018-04-07T16:05:20.841Z,29.89
2018-04-07T16:07:49.205Z,29.96
2018-04-07T16:10:17.874Z,30.16
2018-04-07T16:12:46.210Z,30.22
2018-04-07T16:15:14.565Z,30.07
2018-04-07T16:17:43.734Z,30.04
2018-04-07T16:20:12.224Z,29.87
2018-04-07T16:22:40.559Z,29.80
2018-04-07T16:25:08.959Z,29.98
2018-04-07T16:27:37.366Z,29.71
2018-04-07T16:30:05.737Z,30.00
2018-04-07T16:32:34.253Z,29.55
2018-04-07T16:35:02.649Z,29.97
2018-04-07T16:37:30.978Z,29.68
2018-04-07T16:39:59.345Z,29.86
2018-04-07T16:42:27.658Z,29.98
2018-04-07T16:44:56.785Z,30.24
2018-04-07T16:47:25.142Z,30.04
2018-04-07T16:49:54.300Z,29.93
2018-04-07T16:52:22.820Z,30.33
2018-04-07T16:54:51.215Z,30.01
2018-04-07T16:57:20.361Z,30.04
2018-04-07T16:59:48.740Z,30.10
2018-04-07T17:02:17.104Z,29.94
2018-04-07T17:04:45.457Z,29.86
2018-04-07T17:07:13.828Z,29.92
2018-04-07T17:09:42.968Z,29.83
2018-04-07T17:12:11.349Z,29.76
2018-04-07T17:14:39.689Z,29.94
2018-04-07T17:17:08.325Z,30.05
2018-04-07T17:19:36.687Z,30.07
2018-04-07T17:22:05.056Z,30.43
2018-04-07T17:24:33.421Z,30.34
2018-04-07T17:27:01.776Z,30.34
2018-04-07T17:29:30.896Z,30.53
2018-04-07T17:31:59.255Z,30.70
2018-04-07T17:34:28.388Z,30.45
2018-04-07T17:36:56.729Z,30.45
2018-04-07T17:39:25.950Z,30.39
2018-04-07T17:41:54.309Z,30.66
2018-04-07T17:44:23.432Z,30.83
2018-04-07T17:46:51.802Z,31.04
2018-04-07T17:49:20.184Z,31.17
2018-04-07T17:51:48.527Z,31.45
2018-04-07T17:54:16.905Z,31.46
2018-04-07T17:56:46.025Z,31.53
2018-04-07T17:59:15.125Z,31.55
2018-04-07T18:01:44.431Z,31.67
2018-04-07T18:04:12.852Z,31.63
2018-04-07T18:06:41.267Z,31.84
2018-04-07T18:09:10.436Z,32.00
2018-04-07T18:11:38.820Z,32.15
2018-04-07T18:14:07.156Z,32.30
2018-04-07T18:16:35.508Z,32.37
2018-04-07T18:19:04.599Z,32.29
2018-04-07T18:21:33.716Z,32.23
2018-04-07T18:24:02.497Z,32.12
2018-04-07T18:26:30.845Z,32.18
2018-04-07T18:28:59.144Z,32.36
2018-04-07T18:31:28.296Z,32.26
2018-04-07T18:33:56.619Z,32.42
2018-04-07T18:36:24.977Z,32.54
2018-04-07T18:38:53.348Z,32.74
2018-04-07T18:41:21.801Z,32.63
2018-04-07T18:43:50.130Z,32.89
2018-04-07T18:46:19.173Z,33.06
2018-04-07T18:48:47.520Z,33.10
2018-04-07T18:51:15.861Z,33.22
2018-04-07T18:53:44.241Z,33.33
2018-04-07T18:56:16.932Z,33.50
2018-04-07T18:58:46.109Z,33.75
2018-04-07T19:01:14.515Z,33.71
2018-04-07T19:03:43.619Z,33.90
2018-04-07T19:06:13.445Z,34.16
2018-04-07T19:08:41.790Z,33.96
2018-04-07T19:13:38.708Z,34.27
2018-04-07T19:16:07.075Z,34.18
2018-04-07T19:18:35.487Z,34.20
2018-04-07T19:21:03.850Z,34.55
2018-04-07T19:23:32.212Z,34.71
2018-04-07T19:26:01.077Z,34.73
2018-04-07T19:28:30.538Z,34.94
2018-04-07T19:30:58.870Z,35.27
2018-04-07T19:33:27.969Z,35.32
2018-04-07T19:35:57.145Z,35.75
2018-04-07T19:38:25.489Z,35.70
2018-04-07T19:40:53.837Z,35.75
2018-04-07T19:43:22.217Z,36.14
2018-04-07T19:45:51.313Z,36.26
2018-04-07T19:48:20.000Z,36.12
2018-04-07T19:50:48.755Z,36.45
2018-04-07T19:53:17.149Z,36.77
2018-04-07T19:55:46.256Z,36.97
2018-04-07T19:58:14.665Z,37.32
2018-04-07T20:00:43.014Z,37.52
2018-04-07T20:03:12.137Z,37.33
2018-04-07T20:05:40.588Z,37.42
2018-04-07T20:08:09.705Z,37.44
2018-04-07T20:10:38.092Z,37.31
2018-04-07T20:13:06.538Z,37.22
2018-04-07T20:15:34.886Z,37.49
2018-04-07T20:18:03.304Z,37.66
2018-04-07T20:20:31.716Z,38.06
2018-04-07T20:23:00.035Z,38.57
2018-04-07T20:25:28.371Z,38.25
2018-04-07T20:27:56.784Z,38.59
2018-04-07T20:30:25.132Z,38.78
2018-04-07T20:32:53.467Z,38.79
2018-04-07T20:35:22.701Z,39.04
2018-04-07T20:37:51.069Z,39.33
2018-04-07T20:40:19.452Z,39.48
2018-04-07T20:42:47.798Z,39.68
2018-04-07T20:45:16.137Z,40.36
2018-04-07T20:47:44.487Z,40.35
2018-04-07T20:50:12.873Z,40.55
2018-04-07T20:52:41.236Z,40.62
2018-04-07T20:55:09.604Z,40.79
2018-04-07T20:57:38.837Z,41.03
2018-04-07T21:00:07.187Z,41.75
2018-04-07T21:02:36.288Z,41.22
2018-04-07T21:05:04.647Z,41.67
2018-04-07T21:07:33.044Z,41.64
2018-04-07T21:10:02.168Z,41.91
2018-04-07T21:12:30.544Z,42.02
2018-04-07T21:14:58.895Z,41.89
2018-04-07T21:17:27.994Z,42.45
2018-04-07T21:19:57.272Z,42.00
2018-04-07T21:22:25.622Z,42.58
2018-04-07T21:24:54.742Z,42.86
2018-04-07T21:27:23.140Z,42.72
2018-04-07T21:29:52.308Z,42.36
2018-04-07T21:32:20.717Z,42.44
2018-04-07T21:34:49.849Z,42.52
2018-04-07T21:37:18.192Z,42.78
2018-04-07T21:39:46.537Z,43.26
2018-04-07T21:42:15.190Z,43.11
2018-04-07T21:44:43.526Z,42.83
2018-04-07T21:47:11.847Z,43.50
2018-04-07T21:49:40.517Z,43.47
2018-04-07T21:52:08.877Z,43.44
2018-04-07T21:54:37.214Z,43.32
2018-04-07T21:57:05.629Z,43.64
2018-04-07T21:59:33.984Z,43.28
2018-04-07T22:02:02.371Z,43.30
2018-04-07T22:04:31.096Z,43.12
2018-04-07T22:06:59.479Z,43.41
2018-04-07T22:09:27.829Z,43.59
2018-04-07T22:11:56.233Z,43.82
2018-04-07T22:14:25.324Z,43.83
2018-04-07T22:16:54.433Z,44.00
2018-04-07T22:19:23.580Z,43.61
2018-04-07T22:21:51.937Z,43.97
2018-04-07T22:24:20.296Z,44.33
2018-04-07T22:26:49.075Z,44.36
2018-04-07T22:29:17.412Z,44.83
2018-04-07T22:31:45.787Z,44.77
2018-04-07T22:34:14.173Z,44.50
2018-04-07T22:36:42.532Z,44.67
2018-04-07T22:39:10.849Z,44.71
2018-04-07T22:41:39.990Z,44.81
2018-04-07T22:44:08.382Z,44.90
2018-04-07T22:46:36.776Z,45.00
2018-04-07T22:49:05.167Z,45.35
2018-04-07T22:51:33.765Z,45.23
2018-04-07T22:54:02.894Z,45.60
2018-04-07T22:56:31.302Z,45.62
2018-04-07T22:58:59.644Z,46.00
2018-04-07T23:01:28.712Z,45.59
2018-04-07T23:03:57.061Z,45.69
2018-04-07T23:06:25.461Z,45.95
2018-04-07T23:08:53.809Z,46.09
2018-04-07T23:11:22.412Z,45.96
2018-04-07T23:13:50.791Z,46.17
2018-04-07T23:16:19.132Z,46.12
2018-04-07T23:18:47.473Z,46.23
2018-04-07T23:21:15.821Z,46.69
2018-04-07T23:23:44.152Z,46.99
2018-04-07T23:26:13.328Z,47.04
2018-04-07T23:28:41.692Z,47.08
2018-04-07T23:31:10.230Z,46.98
2018-04-07T23:33:38.737Z,47.07
2018-04-07T23:36:07.089Z,47.90
2018-04-07T23:38:35.433Z,47.70
2018-04-07T23:41:03.841Z,47.99
2018-04-07T23:43:32.170Z,48.05
2018-04-07T23:46:00.522Z,48.68
2018-04-07T23:48:28.937Z,48.70
2018-04-07T23:50:57.313Z,48.40
2018-04-07T23:53:26.018Z,48.51
2018-04-07T23:55:55.625Z,48.33
2018-04-07T23:58:23.972Z,48.27
